createdAt,value
2019-03-18T00:00:26.896Z,6.53
2019-03-18T00:02:55.283Z,3.50
2019-03-18T00:05:23.648Z,7.70
2019-03-18T00:07:52.024Z,3.33
2019-03-18T00:10:20.404Z,8.37
2019-03-18T00:12:48.772Z,4.00
2019-03-18T00:15:17.149Z,3.73
2019-03-18T00:17:45.527Z,4.27
2019-03-18T00:20:14.068Z,5.23
2019-03-18T00:22:42.428Z,2.90
2019-03-18T00:25:13.325Z,2.87
2019-03-18T00:27:41.791Z,8.87
2019-03-18T00:30:18.322Z,2.30
2019-03-18T00:32:46.692Z,5.90
2019-03-18T00:35:15.063Z,2.77
2019-03-18T00:37:43.447Z,4.73
2019-03-18T00:40:16.812Z,3.63
2019-03-18T00:42:45.280Z,8.23
2019-03-18T00:45:15.493Z,1.93
2019-03-18T00:47:44.056Z,5.60
2019-03-18T00:50:14.169Z,1.37
2019-03-18T00:52:42.635Z,2.13
2019-03-18T00:55:11.080Z,1.50
2019-03-18T00:57:39.444Z,1.80
2019-03-18T01:00:19.043Z,2.97
2019-03-18T01:02:49.476Z,1.30
2019-03-18T01:05:18.280Z,1.97
2019-03-18T01:07:46.655Z,4.03
2019-03-18T01:10:16.379Z,1.47
2019-03-18T01:12:44.748Z,3.20
2019-03-18T01:15:13.471Z,1.90
2019-03-18T01:17:41.839Z,2.23
2019-03-18T01:20:11.966Z,2.43
2019-03-18T01:22:40.331Z,2.07
2019-03-18T01:25:09.960Z,1.63
2019-03-18T01:27:38.349Z,1.17
2019-03-18T01:30:11.384Z,0.80
2019-03-18T01:32:39.756Z,0.80
2019-03-18T01:35:10.053Z,1.53
2019-03-18T01:37:38.441Z,1.07
2019-03-18T01:40:14.128Z,1.87
2019-03-18T01:42:42.602Z,1.33
2019-03-18T01:45:11.605Z,1.03
2019-03-18T01:47:39.979Z,2.20
2019-03-18T01:50:10.703Z,8.20
2019-03-18T01:52:39.080Z,2.00
2019-03-18T01:55:07.579Z,6.17
2019-03-18T01:57:35.968Z,3.77
2019-03-18T02:00:07.053Z,2.70
2019-03-18T02:02:35.430Z,2.83
2019-03-18T02:05:05.052Z,2.00
2019-03-18T02:07:33.419Z,1.90
2019-03-18T02:10:01.817Z,2.83
2019-03-18T02:12:30.184Z,4.77
2019-03-18T02:14:58.578Z,2.73
2019-03-18T02:17:26.955Z,1.10
2019-03-18T02:19:55.328Z,1.87
2019-03-18T02:22:23.720Z,2.73
2019-03-18T02:24:52.093Z,2.07
2019-03-18T02:27:20.463Z,3.73
2019-03-18T02:29:48.851Z,0.97
2019-03-18T02:32:17.236Z,3.03
2019-03-18T02:34:45.624Z,2.53
2019-03-18T02:37:14.019Z,2.70
2019-03-18T02:39:42.459Z,1.90
2019-03-18T02:42:10.840Z,1.47
2019-03-18T02:44:39.212Z,0.90
2019-03-18T02:47:07.608Z,2.57
2019-03-18T02:49:35.972Z,1.67
2019-03-18T02:52:04.345Z,1.77
2019-03-18T02:54:32.735Z,3.33
2019-03-18T02:57:01.109Z,2.30
2019-03-18T02:59:29.477Z,1.50
2019-03-18T03:01:57.853Z,2.43
2019-03-18T03:04:26.224Z,4.27
2019-03-18T03:06:54.602Z,3.60
2019-03-18T03:09:22.984Z,3.33
2019-03-18T03:11:51.377Z,3.90
2019-03-18T03:14:19.745Z,9.20
2019-03-18T03:16:48.116Z,3.07
2019-03-18T03:19:16.513Z,3.03
2019-03-18T03:21:44.885Z,3.07
2019-03-18T03:24:13.264Z,3.07
2019-03-18T03:26:41.642Z,7.20
2019-03-18T03:29:10.032Z,2.57
2019-03-18T03:31:38.405Z,1.47
2019-03-18T03:34:12.964Z,2.33
2019-03-18T03:36:36.899Z,3.97
2019-03-18T03:39:06.816Z,7.97
2019-03-18T03:41:35.206Z,2.87
2019-03-18T03:44:03.582Z,4.90
2019-03-18T03:46:42.992Z,3.07
2019-03-18T03:49:02.054Z,6.08
2019-03-18T03:51:30.420Z,3.43
2019-03-18T03:53:58.805Z,2.87
2019-03-18T03:56:27.197Z,2.33
2019-03-18T03:58:55.944Z,3.10
2019-03-18T04:01:24.391Z,4.60
2019-03-18T04:03:52.843Z,3.33
2019-03-18T04:06:21.235Z,1.57
2019-03-18T04:08:49.609Z,2.00
2019-03-18T04:11:18.053Z,4.77
2019-03-18T04:13:46.421Z,2.33
2019-03-18T04:16:14.811Z,2.53
2019-03-18T04:18:43.476Z,2.30
2019-03-18T04:21:11.861Z,1.80
2019-03-18T04:23:40.225Z,1.50
2019-03-18T04:26:08.615Z,1.63
2019-03-18T04:28:36.988Z,2.10
2019-03-18T04:31:05.364Z,3.57
2019-03-18T04:33:33.752Z,2.73
2019-03-18T04:36:02.121Z,6.13
2019-03-18T04:38:30.496Z,4.47
2019-03-18T04:40:58.880Z,4.07
2019-03-18T04:43:27.276Z,3.03
2019-03-18T04:45:55.648Z,5.53
2019-03-18T04:48:24.020Z,3.27
2019-03-18T04:50:52.404Z,5.67
2019-03-18T04:53:20.782Z,4.20
2019-03-18T04:55:49.160Z,6.10
2019-03-18T04:58:17.538Z,13.60
2019-03-18T05:00:45.975Z,2.77
2019-03-18T05:03:14.351Z,5.80
2019-03-18T05:05:42.740Z,2.93
2019-03-18T05:08:11.107Z,4.10
2019-03-18T05:10:39.484Z,4.50
2019-03-18T05:13:07.872Z,5.83
2019-03-18T05:15:36.264Z,7.93
2019-03-18T05:18:04.699Z,8.30
2019-03-18T05:20:33.087Z,7.93
2019-03-18T05:23:01.459Z,3.70
2019-03-18T05:25:29.832Z,5.00
2019-03-18T05:27:58.225Z,7.63
2019-03-18T05:30:26.592Z,6.90
2019-03-18T05:32:54.958Z,5.00
2019-03-18T05:35:23.335Z,5.23
2019-03-18T05:37:51.712Z,6.03
2019-03-18T05:40:20.100Z,6.03
2019-03-18T05:42:48.475Z,8.37
2019-03-18T05:45:16.855Z,13.63
2019-03-18T05:47:45.251Z,7.50
2019-03-18T05:50:13.636Z,11.93
2019-03-18T05:52:42.005Z,10.87
2019-03-18T05:55:10.578Z,15.60
2019-03-18T05:57:38.927Z,9.90
2019-03-18T06:00:12.483Z,12.07
2019-03-18T06:02:40.865Z,10.20
2019-03-18T06:05:09.907Z,13.70
2019-03-18T06:07:38.296Z,22.80
2019-03-18T06:10:09.409Z,8.93
2019-03-18T06:12:37.791Z,9.37
2019-03-18T06:15:08.793Z,18.60
2019-03-18T06:17:37.176Z,10.33
2019-03-18T06:20:10.504Z,9.40
2019-03-18T06:22:38.889Z,15.13
2019-03-18T06:25:08.317Z,10.17
2019-03-18T06:27:36.695Z,6.33
2019-03-18T06:30:16.360Z,4.67
2019-03-18T06:32:44.737Z,9.87
2019-03-18T06:35:13.190Z,9.90
2019-03-18T06:37:41.640Z,9.03
2019-03-18T06:40:14.491Z,14.20
2019-03-18T06:42:42.865Z,12.13
2019-03-18T06:45:14.133Z,6.57
2019-03-18T06:47:42.547Z,2.70
2019-03-18T06:50:11.959Z,9.27
2019-03-18T06:52:40.324Z,5.07
2019-03-18T06:55:09.285Z,9.77
2019-03-18T06:57:37.657Z,13.80
2019-03-18T07:00:14.364Z,12.73
2019-03-18T07:02:42.752Z,14.27
2019-03-18T07:05:11.467Z,13.47
2019-03-18T07:07:39.856Z,5.80
2019-03-18T07:10:12.881Z,2.73
2019-03-18T07:12:41.254Z,6.97
2019-03-18T07:15:10.892Z,3.73
2019-03-18T07:17:39.491Z,4.90
2019-03-18T07:20:12.019Z,9.93
2019-03-18T07:22:40.443Z,5.37
2019-03-18T07:25:08.891Z,9.97
2019-03-18T07:27:37.285Z,6.73
2019-03-18T07:30:08.480Z,11.43
2019-03-18T07:32:36.871Z,6.07
2019-03-18T07:35:06.695Z,10.33
2019-03-18T07:37:35.076Z,3.43
2019-03-18T07:40:05.362Z,11.27
2019-03-18T07:42:33.751Z,10.47
2019-03-18T07:45:02.125Z,9.83
2019-03-18T07:47:30.500Z,7.63
2019-03-18T07:49:58.896Z,10.27
2019-03-18T07:52:27.278Z,9.37
2019-03-18T07:54:55.671Z,13.17
2019-03-18T07:57:24.114Z,14.07
2019-03-18T07:59:52.521Z,12.00
2019-03-18T08:02:20.892Z,16.13
2019-03-18T08:04:49.264Z,15.57
2019-03-18T08:07:17.656Z,10.20
2019-03-18T08:09:46.049Z,18.03
2019-03-18T08:12:14.428Z,13.73
2019-03-18T08:14:42.797Z,15.93
2019-03-18T08:17:11.183Z,15.67
2019-03-18T08:19:39.563Z,14.00
2019-03-18T08:22:07.932Z,13.43
2019-03-18T08:24:36.314Z,11.77
2019-03-18T08:27:04.695Z,15.20
2019-03-18T08:29:33.088Z,14.60
2019-03-18T08:32:01.464Z,14.53
2019-03-18T08:34:29.855Z,11.40
2019-03-18T08:36:58.229Z,10.87
2019-03-18T08:39:26.603Z,11.57
2019-03-18T08:41:54.995Z,14.03
2019-03-18T08:44:23.372Z,17.10
2019-03-18T08:46:51.751Z,14.87
2019-03-18T08:49:20.128Z,7.10
2019-03-18T08:51:48.500Z,3.23
2019-03-18T08:54:16.886Z,2.10
2019-03-18T08:56:45.258Z,6.03
2019-03-18T08:59:13.624Z,2.60
2019-03-18T09:01:42.007Z,1.80
2019-03-18T09:04:10.385Z,3.17
2019-03-18T09:06:38.752Z,4.60
2019-03-18T09:09:08.175Z,6.07
2019-03-18T09:11:36.547Z,3.50
2019-03-18T09:14:04.927Z,3.17
2019-03-18T09:16:33.312Z,5.43
2019-03-18T09:19:08.460Z,5.47
2019-03-18T09:21:31.782Z,8.47
2019-03-18T09:24:00.178Z,9.70
2019-03-18T09:26:28.556Z,7.77
2019-03-18T09:28:56.930Z,9.77
2019-03-18T09:31:25.448Z,12.40
2019-03-18T09:33:53.896Z,8.93
2019-03-18T09:36:22.272Z,11.67
2019-03-18T09:38:50.667Z,12.10
2019-03-18T09:41:19.045Z,12.57
2019-03-18T09:43:47.419Z,4.77
2019-03-18T09:46:15.812Z,6.43
2019-03-18T09:48:44.187Z,4.10
2019-03-18T09:51:12.585Z,10.73
2019-03-18T09:53:41.061Z,6.67
2019-03-18T09:56:09.422Z,7.13
2019-03-18T09:58:37.803Z,7.83
2019-03-18T10:01:06.187Z,9.00
2019-03-18T10:03:34.570Z,2.17
2019-03-18T10:06:02.957Z,2.27
2019-03-18T10:08:50.696Z,11.13
2019-03-18T10:11:19.078Z,9.13
2019-03-18T10:13:47.448Z,1.53
2019-03-18T10:16:15.839Z,6.03
2019-03-18T10:18:44.217Z,2.27
2019-03-18T10:21:12.596Z,4.27
2019-03-18T10:23:40.990Z,13.70
2019-03-18T10:26:09.374Z,7.07
2019-03-18T10:28:37.744Z,5.90
2019-03-18T10:31:06.133Z,8.90
2019-03-18T10:33:34.507Z,12.80
2019-03-18T10:36:02.899Z,3.33
2019-03-18T10:38:31.272Z,8.40
2019-03-18T10:40:59.882Z,2.63
2019-03-18T10:43:28.296Z,2.33
2019-03-18T10:45:56.679Z,8.30
2019-03-18T10:48:25.064Z,4.60
2019-03-18T10:50:53.432Z,1.00
2019-03-18T10:53:21.842Z,2.23
2019-03-18T10:55:50.204Z,6.17
2019-03-18T10:58:18.573Z,5.93
2019-03-18T11:00:46.954Z,3.93
2019-03-18T11:03:15.324Z,3.13
2019-03-18T11:05:43.708Z,9.30
2019-03-18T11:08:12.087Z,8.03
2019-03-18T11:10:40.455Z,8.17
2019-03-18T11:13:08.845Z,12.03
2019-03-18T11:15:37.216Z,4.20
2019-03-18T11:18:05.671Z,12.37
2019-03-18T11:20:34.051Z,10.43
2019-03-18T11:23:02.444Z,3.67
2019-03-18T11:25:30.829Z,10.87
2019-03-18T11:27:59.208Z,5.43
2019-03-18T11:30:27.591Z,5.33
2019-03-18T11:32:55.968Z,8.67
2019-03-18T11:35:24.348Z,9.03
2019-03-18T11:37:52.736Z,7.20
2019-03-18T11:40:23.803Z,6.00
2019-03-18T11:42:52.253Z,8.90
2019-03-18T11:45:20.711Z,10.67
2019-03-18T11:47:49.155Z,7.67
2019-03-18T11:50:18.268Z,7.07
2019-03-18T11:52:46.727Z,4.53
2019-03-18T11:55:25.743Z,6.60
2019-03-18T11:57:54.144Z,8.13
2019-03-18T12:00:23.655Z,6.30
2019-03-18T12:02:52.047Z,2.17
2019-03-18T12:05:23.735Z,6.70
2019-03-18T12:07:52.113Z,3.30
2019-03-18T12:10:21.156Z,4.40
2019-03-18T12:12:49.536Z,6.13
2019-03-18T12:15:23.215Z,5.77
2019-03-18T12:17:51.613Z,4.40
2019-03-18T12:20:24.796Z,10.33
2019-03-18T12:22:50.164Z,10.37
2019-03-18T12:25:18.556Z,8.53
2019-03-18T12:27:46.928Z,2.07
2019-03-18T12:30:17.916Z,4.67
2019-03-18T12:32:46.399Z,5.33
2019-03-18T12:35:14.840Z,9.97
2019-03-18T12:37:43.219Z,3.20
2019-03-18T12:40:13.243Z,7.07
2019-03-18T12:42:41.636Z,9.00
2019-03-18T12:45:12.474Z,9.03
2019-03-18T12:47:41.004Z,6.40
2019-03-18T12:50:49.109Z,12.33
2019-03-18T12:53:03.315Z,10.70
2019-03-18T12:55:31.706Z,13.03
2019-03-18T12:58:00.165Z,7.47
2019-03-18T13:00:33.556Z,12.03
2019-03-18T13:03:02.000Z,10.30
2019-03-18T13:05:30.410Z,7.20
2019-03-18T13:07:58.775Z,9.10
2019-03-18T13:10:27.171Z,12.43
2019-03-18T13:12:55.572Z,8.63
2019-03-18T13:15:23.949Z,10.57
2019-03-18T13:17:52.320Z,8.57
2019-03-18T13:20:21.667Z,12.13
2019-03-18T13:22:51.243Z,7.33
2019-03-18T13:25:20.147Z,6.80
2019-03-18T13:27:48.539Z,8.70
2019-03-18T13:30:21.107Z,10.73
2019-03-18T13:32:49.498Z,7.00
2019-03-18T13:35:17.881Z,5.10
2019-03-18T13:37:46.264Z,7.47
2019-03-18T13:40:16.656Z,7.43
2019-03-18T13:42:45.267Z,6.13
2019-03-18T13:45:23.119Z,6.33
2019-03-18T13:47:51.503Z,6.47
2019-03-18T13:50:21.802Z,4.43
2019-03-18T13:52:50.180Z,7.43
2019-03-18T13:55:18.588Z,7.87
2019-03-18T13:57:46.980Z,8.47
2019-03-18T14:00:20.659Z,11.20
2019-03-18T14:02:49.039Z,4.90
2019-03-18T14:05:17.492Z,9.63
2019-03-18T14:07:58.933Z,4.33
2019-03-18T14:10:18.097Z,6.47
2019-03-18T14:12:46.456Z,5.00
2019-03-18T14:15:20.651Z,9.43
2019-03-18T14:17:49.096Z,7.57
2019-03-18T14:20:22.910Z,4.30
2019-03-18T14:22:51.313Z,6.33
2019-03-18T14:25:19.768Z,9.63
2019-03-18T14:27:48.160Z,9.07
2019-03-18T14:30:23.152Z,7.90
2019-03-18T14:32:51.540Z,6.03
2019-03-18T14:35:21.560Z,13.27
2019-03-18T14:37:50.031Z,8.60
2019-03-18T14:40:19.865Z,10.63
2019-03-18T14:42:48.319Z,8.87
2019-03-18T14:45:23.414Z,10.60
2019-03-18T14:47:51.884Z,6.30
2019-03-18T14:50:20.716Z,7.17
2019-03-18T14:52:49.183Z,4.47
2019-03-18T14:55:18.306Z,10.10
2019-03-18T14:57:46.771Z,4.53
2019-03-18T15:00:18.226Z,5.20
2019-03-18T15:02:46.596Z,2.87
2019-03-18T15:05:15.828Z,4.33
2019-03-18T15:07:44.224Z,3.53
2019-03-18T15:10:17.232Z,4.03
2019-03-18T15:12:45.623Z,3.70
2019-03-18T15:15:16.615Z,5.73
2019-03-18T15:17:45.233Z,5.43
2019-03-18T15:20:15.244Z,5.83
2019-03-18T15:22:43.707Z,4.73
2019-03-18T15:25:26.259Z,6.97
2019-03-18T15:27:54.789Z,6.30
2019-03-18T15:30:23.165Z,9.13
2019-03-18T15:32:51.552Z,9.70
2019-03-18T15:35:19.930Z,7.60
2019-03-18T15:37:48.328Z,11.87
2019-03-18T15:40:19.023Z,8.83
2019-03-18T15:42:47.401Z,9.97
2019-03-18T15:45:17.324Z,4.83
2019-03-18T15:47:45.704Z,11.60
2019-03-18T15:50:24.280Z,9.50
2019-03-18T15:52:52.909Z,8.97
2019-03-18T15:55:23.744Z,10.07
2019-03-18T15:57:51.412Z,8.70
2019-03-18T16:00:30.788Z,7.00
2019-03-18T16:02:59.660Z,12.90
2019-03-18T16:05:28.048Z,9.37
2019-03-18T16:07:56.432Z,12.07
2019-03-18T16:10:24.811Z,7.93
2019-03-18T16:12:53.204Z,11.33
2019-03-18T16:15:21.580Z,11.50
2019-03-18T16:17:50.184Z,7.67
2019-03-18T16:20:21.083Z,6.33
2019-03-18T16:22:49.469Z,6.53
2019-03-18T16:25:17.835Z,9.80
2019-03-18T16:27:46.229Z,6.97
2019-03-18T16:30:19.648Z,7.27
2019-03-18T16:32:48.019Z,8.83
2019-03-18T16:35:17.055Z,9.90
2019-03-18T16:37:45.508Z,9.63
2019-03-18T16:40:18.283Z,8.00
2019-03-18T16:42:46.678Z,8.03
2019-03-18T16:45:16.096Z,11.97
2019-03-18T16:47:44.549Z,6.30
2019-03-18T16:50:15.349Z,11.50
2019-03-18T16:52:43.740Z,9.30
2019-03-18T16:55:12.278Z,7.10
2019-03-18T16:57:40.639Z,9.53
2019-03-18T17:00:14.465Z,6.37
2019-03-18T17:02:43.176Z,5.77
2019-03-18T17:05:11.653Z,9.47
2019-03-18T17:07:40.056Z,15.87
2019-03-18T17:10:11.632Z,9.17
2019-03-18T17:12:40.029Z,11.80
2019-03-18T17:15:10.547Z,8.40
2019-03-18T17:17:38.923Z,8.90
2019-03-18T17:20:10.412Z,7.73
2019-03-18T17:22:48.047Z,17.20
2019-03-18T17:25:18.066Z,6.17
2019-03-18T17:27:46.451Z,8.27
2019-03-18T17:30:18.965Z,6.83
2019-03-18T17:32:47.411Z,8.90
2019-03-18T17:35:15.931Z,7.40
2019-03-18T17:37:44.387Z,8.13
2019-03-18T17:40:16.984Z,12.33
2019-03-18T17:42:45.353Z,7.83
2019-03-18T17:45:15.084Z,8.50
2019-03-18T17:47:43.644Z,10.70
2019-03-18T17:50:25.892Z,6.27
2019-03-18T17:53:02.328Z,5.63
2019-03-18T17:55:24.371Z,7.90
2019-03-18T17:57:52.756Z,17.57
2019-03-18T18:00:28.879Z,7.87
2019-03-18T18:02:57.264Z,10.80
2019-03-18T18:05:25.640Z,9.07
2019-03-18T18:07:54.016Z,7.87
2019-03-18T18:10:22.422Z,12.50
2019-03-18T18:12:50.777Z,12.50
2019-03-18T18:15:19.151Z,9.67
2019-03-18T18:17:47.532Z,6.10
2019-03-18T18:20:16.281Z,12.90
2019-03-18T18:22:44.662Z,12.17
2019-03-18T18:25:16.573Z,10.17
2019-03-18T18:27:44.940Z,17.70
2019-03-18T18:30:18.103Z,8.20
2019-03-18T18:32:46.722Z,8.23
2019-03-18T18:35:15.234Z,13.97
2019-03-18T18:38:02.956Z,8.43
2019-03-18T18:40:31.337Z,11.30
2019-03-18T18:42:59.725Z,12.60
2019-03-18T18:45:28.097Z,10.20
2019-03-18T18:47:56.503Z,16.27
2019-03-18T18:50:25.025Z,9.27
2019-03-18T18:52:53.400Z,7.83
2019-03-18T18:55:21.788Z,18.47
2019-03-18T18:57:50.172Z,9.00
2019-03-18T19:00:20.667Z,5.83
2019-03-18T19:02:49.204Z,11.80
2019-03-18T19:05:18.221Z,8.17
2019-03-18T19:07:46.604Z,13.50
2019-03-18T19:10:17.196Z,12.53
2019-03-18T19:12:45.579Z,13.80
2019-03-18T19:15:17.065Z,10.80
2019-03-18T19:17:45.453Z,8.30
2019-03-18T19:20:14.664Z,12.60
2019-03-18T19:22:43.072Z,12.43
2019-03-18T19:25:14.053Z,11.17
2019-03-18T19:27:42.422Z,8.33
2019-03-18T19:30:20.828Z,10.23
2019-03-18T19:32:49.565Z,9.03
2019-03-18T19:35:18.004Z,11.77
2019-03-18T19:37:46.396Z,11.73
2019-03-18T19:40:22.724Z,13.83
2019-03-18T19:42:51.119Z,10.20
2019-03-18T19:45:19.483Z,14.47
2019-03-18T19:47:47.862Z,16.03
2019-03-18T19:50:28.216Z,11.77
2019-03-18T19:52:56.588Z,13.70
2019-03-18T19:55:24.976Z,10.23
2019-03-18T19:57:53.357Z,8.90
2019-03-18T20:00:27.544Z,9.93
2019-03-18T20:02:55.918Z,11.97
2019-03-18T20:05:24.287Z,6.23
2019-03-18T20:08:12.012Z,17.40
2019-03-18T20:10:40.397Z,15.17
2019-03-18T20:13:08.773Z,11.47
2019-03-18T20:15:37.161Z,13.23
2019-03-18T20:18:05.540Z,10.70
2019-03-18T20:20:33.936Z,13.53
2019-03-18T20:23:02.384Z,13.20
2019-03-18T20:25:30.770Z,16.47
2019-03-18T20:27:59.144Z,15.37
2019-03-18T20:30:27.605Z,9.43
2019-03-18T20:32:55.984Z,9.43
2019-03-18T20:35:25.000Z,15.37
2019-03-18T20:37:53.462Z,9.00
2019-03-18T20:40:21.897Z,14.17
2019-03-18T20:42:50.277Z,9.50
2019-03-18T20:45:25.272Z,19.27
2019-03-18T20:47:53.884Z,13.97
2019-03-18T20:50:23.211Z,16.43
2019-03-18T20:52:51.647Z,10.60
2019-03-18T20:55:20.040Z,14.83
2019-03-18T20:57:48.410Z,11.87
2019-03-18T21:00:21.253Z,11.93
2019-03-18T21:03:08.970Z,10.63
2019-03-18T21:05:56.696Z,18.33
2019-03-18T21:08:25.079Z,13.20
2019-03-18T21:10:53.698Z,14.03
2019-03-18T21:13:22.084Z,8.70
2019-03-18T21:15:50.452Z,13.50
2019-03-18T21:18:18.831Z,10.47
2019-03-18T21:20:47.211Z,9.40
2019-03-18T21:23:15.589Z,12.00
2019-03-18T21:25:43.967Z,14.63
2019-03-18T21:28:12.360Z,13.77
2019-03-18T21:30:40.732Z,11.93
2019-03-18T21:33:09.206Z,13.87
2019-03-18T21:35:37.678Z,10.27
2019-03-18T21:38:06.043Z,11.97
2019-03-18T21:40:34.440Z,11.90
2019-03-18T21:43:02.824Z,19.97
2019-03-18T21:45:31.196Z,8.83
2019-03-18T21:47:59.580Z,13.77
2019-03-18T21:50:27.953Z,13.27
2019-03-18T21:52:56.331Z,9.67
2019-03-18T21:55:24.707Z,10.43
2019-03-18T21:57:53.093Z,19.90
2019-03-18T22:00:22.202Z,18.73
2019-03-18T22:02:50.656Z,20.80
2019-03-18T22:05:19.044Z,13.93
2019-03-18T22:07:47.432Z,10.13
2019-03-18T22:10:19.957Z,8.57
2019-03-18T22:12:48.873Z,12.37
2019-03-18T22:15:17.624Z,11.33
2019-03-18T22:17:46.011Z,11.77
2019-03-18T22:20:18.251Z,10.63
2019-03-18T22:22:46.626Z,12.73
2019-03-18T22:25:15.843Z,17.83
2019-03-18T22:27:44.364Z,15.83
2019-03-18T22:30:19.807Z,16.83
2019-03-18T22:32:48.554Z,9.47
2019-03-18T22:35:16.921Z,15.07
2019-03-18T22:37:45.339Z,20.10
2019-03-18T22:40:15.756Z,18.57
2019-03-18T22:42:44.130Z,13.00
2019-03-18T22:45:13.752Z,13.90
2019-03-18T22:47:42.139Z,17.13
2019-03-18T22:50:31.371Z,16.53
2019-03-18T22:52:59.752Z,17.87
2019-03-18T22:55:28.140Z,20.30
2019-03-18T22:57:56.511Z,16.37
2019-03-18T23:00:26.544Z,20.00
2019-03-18T23:02:55.088Z,16.50
2019-03-18T23:05:23.466Z,12.83
2019-03-18T23:07:51.852Z,11.97
2019-03-18T23:10:20.303Z,8.23
2019-03-18T23:12:48.685Z,10.23
2019-03-18T23:15:17.059Z,14.87
2019-03-18T23:17:45.446Z,13.03
2019-03-18T23:20:13.901Z,13.93
2019-03-18T23:22:42.272Z,14.57
2019-03-18T23:25:10.661Z,13.67
2019-03-18T23:27:39.042Z,14.17
2019-03-18T23:30:11.580Z,11.73
2019-03-18T23:32:39.974Z,14.67
2019-03-18T23:35:08.415Z,18.50
2019-03-18T23:37:36.787Z,15.37
2019-03-18T23:40:07.316Z,15.77
2019-03-18T23:42:35.687Z,11.07
2019-03-18T23:45:05.109Z,13.93
2019-03-18T23:47:33.502Z,14.43
2019-03-18T23:50:21.211Z,14.50
2019-03-18T23:52:49.600Z,11.43
2019-03-18T23:55:19.808Z,19.57
2019-03-18T23:57:48.091Z,21.67
